Bear Valley Springs, California
Current Conditions -  °F | °C
As of 4:35 AM on Sunday 21 Dec 2014 (Local Time) from KTSP Reporting Station
Moderate Fog Moderate Fog  
Wind Chill: 36°   Ceiling: 300
Heat Index: 43°   Visibility: 0.5mi
Dew Point: 43°   Wind: 13mph
Humidity: 100%   Direction: 300°WNW
Pressure: 30.26"   Gusts: NA
Location:  35.1338°N, 118.552°W
Report Text: KTSP 211235Z AUTO 30011KT 1/2SM FG OVC003 06/06 A3026 RMK AO2
Loading
Personal Weather Stations






























Interactive Weather Map New forecast layout! Learn more

10-Day Weather Forecast

Advertisements
Track Severe Weather on mobile